Time;durP1;ratioP1;P1;durP2;ratioP2;P2;SDS_P1;SDS_P2;PMS_P1;PMS_P2;Temp;Humidity;BMP_temperature;BMP_pressure;BME280_temperature;BME280_humidity;BME280_pressure;Samples;Min_cycle;Max_cycle;Signal;HPM_P1;HPM_P2
2022/04/19 00:00:51;;;;;;;22.55;14.65;;;11.30;94.60;;;;;;5073898;28;20028;-75
2022/04/19 00:03:17;;;;;;;22.27;14.27;;;11.20;94.90;;;;;;5074126;28;20529;-75
2022/04/19 00:05:43;;;;;;;25.70;15.40;;;11.20;95.30;;;;;;5073868;28;20099;-75
2022/04/19 00:08:11;;;;;;;23.55;14.65;;;11.20;95.60;;;;;;5074164;28;20028;-74
2022/04/19 00:10:37;;;;;;;22.92;14.10;;;11.20;95.90;;;;;;5073561;28;20059;-74
2022/04/19 00:13:05;;;;;;;22.77;14.02;;;11.10;96.10;;;;;;5073658;28;20029;-74
2022/04/19 00:15:31;;;;;;;22.80;13.93;;;11.10;96.30;;;;;;5073706;28;20016;-75
2022/04/19 00:18:02;;;;;;;22.25;14.85;;;11.10;96.50;;;;;;5073557;28;20051;-74
2022/04/19 00:20:29;;;;;;;21.83;14.25;;;11.10;96.70;;;;;;5073692;28;20025;-74
2022/04/19 00:22:55;;;;;;;19.33;13.70;;;11.10;97.00;;;;;;5073442;28;20041;-74
2022/04/19 00:25:21;;;;;;;21.35;14.35;;;11.00;97.30;;;;;;5073396;28;20104;-76
2022/04/19 00:27:47;;;;;;;22.25;14.80;;;11.10;97.80;;;;;;5073829;28;20071;-74
2022/04/19 00:30:13;;;;;;;26.70;15.88;;;11.00;98.20;;;;;;5073270;28;20599;-74
2022/04/19 00:32:39;;;;;;;23.85;16.00;;;11.00;98.80;;;;;;5073894;28;20055;-75
2022/04/19 00:35:07;;;;;;;25.42;15.00;;;10.90;99.20;;;;;;5073579;28;20033;-74
2022/04/19 00:37:34;;;;;;;26.45;16.13;;;10.90;99.40;;;;;;5054996;28;20032;-75
2022/04/19 00:40:01;;;;;;;28.02;16.60;;;10.90;99.60;;;;;;5073455;28;20515;-74
2022/04/19 00:42:28;;;;;;;22.98;15.43;;;10.90;99.80;;;;;;5073296;28;20374;-74
2022/04/19 00:44:58;;;;;;;27.05;15.63;;;10.80;99.80;;;;;;5073571;28;20490;-75
2022/04/19 00:47:25;;;;;;;21.25;15.10;;;10.80;99.90;;;;;;5072832;28;20024;-75
2022/04/19 00:49:50;;;;;;;28.33;16.63;;;10.80;99.90;;;;;;5072962;28;20025;-74
2022/04/19 00:52:16;;;;;;;25.23;15.88;;;10.80;99.90;;;;;;5072989;28;20035;-75
2022/04/19 00:54:43;;;;;;;24.77;16.33;;;10.80;99.90;;;;;;5073052;28;20040;-75
2022/04/19 00:57:10;;;;;;;25.73;15.88;;;10.70;99.90;;;;;;5073163;28;20048;-74
2022/04/19 00:59:36;;;;;;;27.52;16.50;;;10.70;99.90;;;;;;5072698;28;20028;-75
2022/04/19 01:02:03;;;;;;;27.00;16.42;;;10.70;99.90;;;;;;5055071;28;20074;-74
2022/04/19 01:04:29;;;;;;;25.95;16.42;;;10.60;99.90;;;;;;5072523;28;20013;-75
2022/04/19 01:06:57;;;;;;;26.30;16.35;;;10.60;99.90;;;;;;5072746;28;20528;-74
2022/04/19 01:09:23;;;;;;;24.73;16.30;;;10.60;99.90;;;;;;5072592;28;20431;-75
2022/04/19 01:14:36;;;;;;;25.27;16.33;;;10.50;99.90;;;;;;5072729;28;20039;-74
2022/04/19 01:17:03;;;;;;;26.10;16.60;;;10.50;99.90;;;;;;5072613;28;20025;-74
2022/04/19 01:19:29;;;;;;;23.08;15.38;;;10.50;99.90;;;;;;5072154;28;20044;-75
2022/04/19 01:21:54;;;;;;;26.77;16.38;;;10.50;99.90;;;;;;5072521;28;20075;-74
2022/04/19 01:24:22;;;;;;;24.08;16.35;;;10.50;99.90;;;;;;5072403;28;20024;-74
2022/04/19 01:26:48;;;;;;;24.88;16.52;;;10.40;99.90;;;;;;5072544;28;20028;-74
2022/04/19 01:29:15;;;;;;;29.15;16.98;;;10.40;99.90;;;;;;5072238;28;20025;-74
2022/04/19 01:31:42;;;;;;;24.85;16.00;;;10.40;99.90;;;;;;5072137;28;20386;-74
2022/04/19 01:34:08;;;;;;;27.70;16.15;;;10.30;99.90;;;;;;5072726;28;20086;-74
2022/04/19 01:36:37;;;;;;;25.23;16.40;;;10.30;99.90;;;;;;5072210;28;20025;-75
2022/04/19 01:39:07;;;;;;;25.52;16.45;;;10.30;99.90;;;;;;5072087;28;20115;-76
2022/04/19 01:41:34;;;;;;;26.42;16.85;;;10.30;99.90;;;;;;5072497;28;20032;-74
2022/04/19 01:44:00;;;;;;;27.73;17.15;;;10.30;99.90;;;;;;5071998;28;20486;-74
2022/04/19 01:46:31;;;;;;;24.92;17.13;;;10.30;99.90;;;;;;5071889;28;20021;-74
2022/04/19 01:48:57;;;;;;;26.52;16.88;;;10.20;99.90;;;;;;5071911;28;20077;-75
2022/04/19 01:51:24;;;;;;;29.50;18.15;;;10.20;99.90;;;;;;5072059;28;20025;-75
2022/04/19 01:53:50;;;;;;;26.85;18.15;;;10.20;99.90;;;;;;5071854;28;20025;-74
2022/04/19 01:56:16;;;;;;;29.58;18.70;;;10.20;99.90;;;;;;5072221;28;20070;-75
2022/04/19 01:58:42;;;;;;;30.60;17.83;;;10.10;99.90;;;;;;5070685;28;20033;-74
2022/04/19 02:01:08;;;;;;;27.67;18.17;;;10.10;99.90;;;;;;5071541;28;20033;-75
2022/04/19 02:03:34;;;;;;;32.10;18.25;;;10.10;99.90;;;;;;5071511;28;20060;-74
2022/04/19 02:06:01;;;;;;;28.80;18.13;;;10.00;99.90;;;;;;5071539;28;20114;-75
2022/04/19 02:08:27;;;;;;;28.95;17.95;;;10.00;99.90;;;;;;5071415;28;20097;-74
2022/04/19 02:10:52;;;;;;;29.75;18.45;;;10.00;99.90;;;;;;5071335;28;20062;-75
2022/04/19 02:13:19;;;;;;;30.55;17.70;;;10.00;99.90;;;;;;5072039;28;20036;-75
2022/04/19 02:15:46;;;;;;;29.48;17.83;;;10.00;99.90;;;;;;5071965;28;20028;-75
2022/04/19 02:18:12;;;;;;;32.05;18.90;;;9.90;99.90;;;;;;5071692;28;20067;-75
2022/04/19 02:20:37;;;;;;;27.98;17.92;;;9.90;99.90;;;;;;5071547;28;20033;-72
2022/04/19 02:23:03;;;;;;;32.40;18.20;;;9.90;99.90;;;;;;5070916;28;20400;-73
2022/04/19 02:25:29;;;;;;;28.27;17.70;;;9.90;99.90;;;;;;5053074;28;20032;-73
2022/04/19 02:27:54;;;;;;;28.52;18.23;;;9.80;99.90;;;;;;5070850;28;20483;-73
2022/04/19 02:30:20;;;;;;;32.15;18.20;;;9.80;99.90;;;;;;5071004;28;20028;-75
2022/04/19 02:32:48;;;;;;;29.50;18.75;;;9.80;99.90;;;;;;5071022;28;20110;-74
2022/04/19 02:35:18;;;;;;;27.60;18.58;;;9.80;99.90;;;;;;5071125;28;20032;-74
2022/04/19 02:37:54;;;;;;;29.77;18.48;;;9.70;99.90;;;;;;5070913;28;20064;-74
2022/04/19 02:40:21;;;;;;;36.25;18.70;;;9.70;99.90;;;;;;5070931;28;20488;-73
2022/04/19 02:42:48;;;;;;;31.92;19.50;;;9.70;99.90;;;;;;5070841;28;20063;-74
2022/04/19 02:45:13;;;;;;;31.33;19.58;;;9.70;99.90;;;;;;5063872;28;20310;-74
2022/04/19 02:47:41;;;;;;;29.65;19.50;;;9.70;99.90;;;;;;5050998;28;20500;-74
2022/04/19 02:50:07;;;;;;;33.33;18.95;;;9.70;99.90;;;;;;5051339;28;20476;-74
2022/04/19 02:52:32;;;;;;;32.40;19.85;;;9.60;99.90;;;;;;5050583;28;20091;-73
2022/04/19 02:54:58;;;;;;;32.58;20.25;;;9.60;99.90;;;;;;5050829;28;20357;-74
2022/04/19 02:57:24;;;;;;;31.45;19.02;;;9.60;99.90;;;;;;5050632;28;20025;-73
2022/04/19 02:59:50;;;;;;;33.03;20.38;;;9.60;99.90;;;;;;5050592;28;20024;-74
2022/04/19 03:02:18;;;;;;;34.10;20.13;;;9.50;99.90;;;;;;5050963;28;20025;-75
2022/04/19 03:04:43;;;;;;;31.63;20.13;;;9.50;99.90;;;;;;5051144;28;20025;-75
2022/04/19 03:07:09;;;;;;;37.17;21.08;;;9.50;99.90;;;;;;5050850;28;20108;-74
2022/04/19 03:09:35;;;;;;;32.20;19.95;;;9.40;99.90;;;;;;5016291;28;20068;-75
2022/04/19 03:12:01;;;;;;;31.48;20.17;;;9.50;99.90;;;;;;5050723;28;20074;-74
2022/04/19 03:14:27;;;;;;;32.42;19.90;;;9.40;99.90;;;;;;5050730;28;20334;-75
2022/04/19 03:16:53;;;;;;;32.22;20.73;;;9.40;99.90;;;;;;5051133;28;20393;-74
2022/04/19 03:19:19;;;;;;;33.35;20.95;;;9.40;99.90;;;;;;5050319;28;20049;-75
2022/04/19 03:21:44;;;;;;;35.80;21.65;;;9.30;99.90;;;;;;5050651;28;20029;-76
2022/04/19 03:29:38;;;;;;;33.92;21.23;;;9.30;99.90;;;;;;5050990;28;20048;-75
2022/04/19 03:32:05;;;;;;;34.75;20.27;;;9.30;99.90;;;;;;5050533;28;20392;-75
2022/04/19 03:34:30;;;;;;;31.95;20.67;;;9.20;99.90;;;;;;5032600;28;20065;-75
2022/04/19 03:36:56;;;;;;;35.78;22.05;;;9.20;99.90;;;;;;5050651;28;20052;-74
2022/04/19 03:39:21;;;;;;;33.53;21.80;;;9.20;99.90;;;;;;5050725;28;20051;-74
2022/04/19 03:41:47;;;;;;;34.22;21.88;;;9.20;99.90;;;;;;5050699;28;20033;-74
2022/04/19 03:44:12;;;;;;;32.10;20.90;;;9.20;99.90;;;;;;5050388;28;20492;-74
2022/04/19 03:49:24;;;;;;;34.08;21.70;;;9.10;99.90;;;;;;5050448;28;20083;-74
2022/04/19 03:51:50;;;;;;;32.58;21.33;;;9.10;99.90;;;;;;5050509;28;20111;-76
2022/04/19 03:54:16;;;;;;;34.03;21.70;;;9.10;99.90;;;;;;5050420;28;20561;-75
2022/04/19 03:56:42;;;;;;;38.17;21.90;;;9.10;99.90;;;;;;5050436;28;20501;-74
2022/04/19 03:59:09;;;;;;;34.55;22.23;;;9.00;99.90;;;;;;5050291;28;20021;-75
2022/04/19 04:01:37;;;;;;;35.33;22.25;;;9.10;99.90;;;;;;5050311;28;20052;-74
2022/04/19 04:04:04;;;;;;;36.08;22.50;;;9.00;99.90;;;;;;5050312;28;20013;-74
2022/04/19 04:06:30;;;;;;;35.50;21.92;;;9.00;99.90;;;;;;5050192;28;20037;-73
2022/04/19 04:08:56;;;;;;;36.95;22.50;;;9.00;99.90;;;;;;5049975;28;20021;-75
2022/04/19 04:11:22;;;;;;;36.63;22.85;;;8.90;99.90;;;;;;5049901;28;20447;-74
2022/04/19 04:13:47;;;;;;;37.72;22.73;;;8.90;99.90;;;;;;5049766;28;20373;-74
2022/04/19 04:16:13;;;;;;;35.75;22.55;;;8.90;99.90;;;;;;5049449;28;20033;-74
2022/04/19 04:18:39;;;;;;;35.65;22.55;;;8.90;99.90;;;;;;5049722;28;20064;-73
2022/04/19 04:21:05;;;;;;;35.20;22.70;;;8.90;99.90;;;;;;5050601;28;20043;-74
2022/04/19 04:23:33;;;;;;;38.30;23.58;;;8.90;99.90;;;;;;5053562;28;20017;-74
2022/04/19 04:25:59;;;;;;;37.45;22.92;;;8.80;99.90;;;;;;5053776;28;20031;-74
2022/04/19 04:28:24;;;;;;;38.67;22.80;;;8.80;99.90;;;;;;5053428;28;20013;-73
2022/04/19 04:30:50;;;;;;;39.25;23.60;;;8.80;99.90;;;;;;5053362;28;20491;-74
2022/04/19 04:33:16;;;;;;;35.63;23.42;;;8.80;99.90;;;;;;5053308;28;20097;-74
2022/04/19 04:35:42;;;;;;;35.80;22.45;;;8.80;99.90;;;;;;5053044;28;20108;-74
2022/04/19 04:38:07;;;;;;;37.55;22.65;;;8.80;99.90;;;;;;5053009;28;20021;-74
2022/04/19 04:40:33;;;;;;;36.88;23.15;;;8.80;99.90;;;;;;5052990;28;20040;-73
2022/04/19 04:42:58;;;;;;;39.50;23.60;;;8.70;99.90;;;;;;5052930;28;20021;-74
2022/04/19 04:45:25;;;;;;;39.90;23.33;;;8.70;99.90;;;;;;5053140;28;20021;-74
2022/04/19 04:50:34;;;;;;;34.50;21.17;;;8.70;99.90;;;;;;5053147;28;20051;-74
2022/04/19 04:53:00;;;;;;;38.88;22.17;;;8.70;99.90;;;;;;5053278;28;20029;-73
2022/04/19 04:55:26;;;;;;;37.00;22.63;;;8.70;99.90;;;;;;5052959;28;20021;-76
2022/04/19 04:57:56;;;;;;;37.03;22.67;;;8.70;99.90;;;;;;5053645;28;20032;-73
2022/04/19 05:00:22;;;;;;;41.22;23.50;;;8.70;99.90;;;;;;5053601;28;20111;-73
2022/04/19 05:02:47;;;;;;;34.92;22.48;;;8.70;99.90;;;;;;5053618;28;20049;-74
2022/04/19 05:05:13;;;;;;;34.90;22.05;;;8.70;99.90;;;;;;5053592;28;20025;-74
2022/04/19 05:07:38;;;;;;;41.65;24.25;;;8.70;99.90;;;;;;5053586;28;20034;-74
2022/04/19 05:10:06;;;;;;;40.03;24.27;;;8.60;99.90;;;;;;5053486;28;20048;-74
2022/04/19 05:12:31;;;;;;;39.42;23.67;;;8.70;99.90;;;;;;5053578;28;20434;-73
2022/04/19 05:14:57;;;;;;;39.80;23.30;;;8.70;99.90;;;;;;5053039;28;20108;-73
2022/04/19 05:17:23;;;;;;;40.25;23.80;;;8.70;99.90;;;;;;5052871;28;20222;-74
2022/04/19 05:19:48;;;;;;;41.33;22.95;;;8.60;99.90;;;;;;5052370;28;20540;-74
2022/04/19 05:22:14;;;;;;;37.90;23.88;;;8.70;99.90;;;;;;5052299;28;20025;-74
2022/04/19 05:24:40;;;;;;;39.53;23.85;;;8.70;99.90;;;;;;5052350;28;20427;-73
2022/04/19 05:27:05;;;;;;;36.92;23.60;;;8.70;99.90;;;;;;5034864;28;20424;-74
2022/04/19 05:29:31;;;;;;;41.05;23.95;;;8.80;99.90;;;;;;5034434;28;20116;-73
2022/04/19 05:31:56;;;;;;;38.42;23.50;;;8.80;99.90;;;;;;5051605;28;20025;-73
2022/04/19 05:34:22;;;;;;;42.47;24.80;;;8.80;99.90;;;;;;5051528;28;20032;-74
2022/04/19 05:36:48;;;;;;;37.58;23.77;;;8.90;99.90;;;;;;5052051;28;20111;-74
2022/04/19 05:39:13;;;;;;;36.38;23.85;;;8.90;99.90;;;;;;5051794;28;20388;-74
2022/04/19 05:41:40;;;;;;;40.28;24.05;;;8.90;99.90;;;;;;5052232;28;20029;-75
2022/04/19 05:44:06;;;;;;;39.50;24.15;;;8.90;99.90;;;;;;5034481;28;20044;-73
2022/04/19 05:46:32;;;;;;;38.30;23.65;;;9.00;99.90;;;;;;5052062;28;20046;-74
2022/04/19 05:48:58;;;;;;;38.97;23.75;;;9.00;99.90;;;;;;5052279;28;20021;-74
2022/04/19 05:51:24;;;;;;;39.60;24.38;;;9.00;99.90;;;;;;5051896;28;20440;-73
2022/04/19 05:53:49;;;;;;;37.83;23.85;;;9.00;99.90;;;;;;5051958;28;20029;-74
2022/04/19 05:56:15;;;;;;;39.08;24.15;;;9.10;99.90;;;;;;5051915;28;20036;-73
2022/04/19 05:58:40;;;;;;;38.42;24.02;;;9.10;99.90;;;;;;5051958;28;20022;-74
2022/04/19 06:01:06;;;;;;;40.72;24.85;;;9.20;99.90;;;;;;5052105;28;20032;-73
2022/04/19 06:06:16;;;;;;;39.15;25.20;;;9.30;99.90;;;;;;5054355;28;20114;-76
2022/04/19 06:08:42;;;;;;;44.50;24.45;;;9.30;99.90;;;;;;5054955;28;20029;-74
2022/04/19 06:11:11;;;;;;;43.13;25.85;;;9.40;99.90;;;;;;5054744;28;20039;-73
2022/04/19 06:13:37;;;;;;;38.85;24.23;;;9.50;99.90;;;;;;5056300;28;20028;-74
2022/04/19 06:16:02;;;;;;;40.80;24.98;;;9.50;99.90;;;;;;5056128;28;20036;-74
2022/04/19 06:18:28;;;;;;;43.67;25.65;;;9.60;99.90;;;;;;5055317;28;20132;-73
2022/04/19 06:20:54;;;;;;;41.08;24.70;;;9.70;99.90;;;;;;5055087;28;20025;-73
2022/04/19 06:23:20;;;;;;;35.60;23.30;;;9.80;99.90;;;;;;5054673;28;20025;-74
2022/04/19 06:25:46;;;;;;;33.83;22.02;;;9.80;99.90;;;;;;5053770;28;20027;-74
2022/04/19 06:28:11;;;;;;;36.85;22.35;;;9.90;99.90;;;;;;5054101;28;20096;-74
2022/04/19 06:30:37;;;;;;;35.05;22.55;;;10.00;99.90;;;;;;5054285;28;20033;-75
2022/04/19 06:33:03;;;;;;;33.22;21.05;;;10.10;99.90;;;;;;5053938;28;20029;-74
2022/04/19 06:35:29;;;;;;;35.80;21.20;;;10.20;99.90;;;;;;5053694;28;20033;-73
2022/04/19 06:37:54;;;;;;;33.70;21.50;;;10.20;99.90;;;;;;5055666;28;20029;-74
2022/04/19 06:40:20;;;;;;;32.13;21.00;;;10.30;99.90;;;;;;5054829;28;20017;-73
2022/04/19 06:42:45;;;;;;;32.10;20.83;;;10.40;99.90;;;;;;5053924;28;20099;-73
2022/04/19 06:45:11;;;;;;;31.30;19.95;;;10.40;99.90;;;;;;5053606;28;20029;-75
2022/04/19 06:47:37;;;;;;;32.17;20.23;;;10.50;99.90;;;;;;5038445;28;20025;-74
2022/04/19 06:50:03;;;;;;;31.60;19.88;;;10.60;99.90;;;;;;5053608;28;20021;-74
2022/04/19 06:52:29;;;;;;;29.83;19.55;;;10.70;99.90;;;;;;5054785;28;20405;-74
2022/04/19 06:54:55;;;;;;;32.67;20.73;;;10.70;99.90;;;;;;5056216;28;20017;-75
2022/04/19 06:57:20;;;;;;;28.92;18.52;;;10.80;99.90;;;;;;5053448;28;20027;-74
2022/04/19 06:59:46;;;;;;;31.80;18.65;;;10.90;99.90;;;;;;5053194;28;20021;-75
2022/04/19 07:02:12;;;;;;;28.23;17.30;;;11.00;99.90;;;;;;5053133;28;20033;-75
2022/04/19 07:04:39;;;;;;;28.55;17.45;;;11.10;99.90;;;;;;5053980;28;20072;-75
2022/04/19 07:07:06;;;;;;;26.52;16.70;;;11.20;99.90;;;;;;5034895;28;20390;-74
2022/04/19 07:09:32;;;;;;;27.98;17.13;;;11.30;99.90;;;;;;5052831;28;20029;-74
2022/04/19 07:11:57;;;;;;;24.98;15.85;;;11.50;99.90;;;;;;5052810;28;20071;-72
2022/04/19 07:14:23;;;;;;;25.60;15.52;;;11.60;99.90;;;;;;5052258;28;20033;-73
2022/04/19 07:16:51;;;;;;;21.02;13.40;;;11.70;99.90;;;;;;5052415;28;20059;-73
2022/04/19 07:19:17;;;;;;;24.17;15.02;;;11.90;99.90;;;;;;5052809;28;20056;-74
2022/04/19 07:26:37;;;;;;;24.30;13.52;;;12.20;99.90;;;;;;5053219;28;20483;-74
2022/04/19 07:27:13;;;;;;;21.70;13.23;;;12.40;99.90;;;;;;5051693;28;20068;-74
2022/04/19 07:29:38;;;;;;;22.67;13.27;;;12.50;99.90;;;;;;5052157;28;20041;-74
2022/04/19 07:32:04;;;;;;;20.23;13.13;;;12.60;99.90;;;;;;5052460;28;20453;-73
2022/04/19 07:34:30;;;;;;;21.55;13.30;;;12.70;99.90;;;;;;5052911;28;20396;-73
2022/04/19 07:36:56;;;;;;;23.30;14.20;;;12.90;99.90;;;;;;5052887;28;20022;-74
2022/04/19 07:39:22;;;;;;;20.05;13.18;;;13.00;99.90;;;;;;5052603;28;20093;-73
2022/04/19 07:41:48;;;;;;;21.63;13.70;;;13.10;99.90;;;;;;5051946;28;20496;-74
2022/04/19 07:44:15;;;;;;;24.23;13.77;;;13.20;99.90;;;;;;5052469;28;20380;-73
2022/04/19 07:46:42;;;;;;;21.13;13.60;;;13.30;99.90;;;;;;5052720;28;20024;-74
2022/04/19 07:49:08;;;;;;;21.13;12.85;;;13.40;99.90;;;;;;5051747;28;20029;-74
2022/04/19 07:51:35;;;;;;;21.55;13.07;;;13.50;99.40;;;;;;5051813;28;20079;-74
2022/04/19 07:54:01;;;;;;;19.33;12.60;;;13.60;98.60;;;;;;5051493;28;20025;-73
2022/04/19 07:56:26;;;;;;;19.25;12.52;;;13.80;97.80;;;;;;5053179;28;20068;-73
2022/04/19 07:58:52;;;;;;;19.70;12.38;;;13.90;96.70;;;;;;5055001;28;20600;-73
2022/04/19 08:01:18;;;;;;;23.50;13.50;;;14.00;95.60;;;;;;5055456;28;20388;-76
2022/04/19 08:03:44;;;;;;;19.88;12.93;;;14.00;94.20;;;;;;5055039;28;20033;-73
2022/04/19 08:06:10;;;;;;;18.45;11.45;;;14.20;94.10;;;;;;5055030;28;20441;-73
2022/04/19 08:08:36;;;;;;;19.92;11.80;;;14.40;93.50;;;;;;5055221;28;20031;-74
2022/04/19 08:11:03;;;;;;;21.73;11.43;;;14.50;92.40;;;;;;5055613;28;20431;-74
2022/04/19 08:13:29;;;;;;;18.00;10.88;;;14.70;91.20;;;;;;5056409;28;20067;-75
2022/04/19 08:15:54;;;;;;;20.17;11.93;;;15.00;90.10;;;;;;5055668;28;20017;-75
2022/04/19 08:18:21;;;;;;;16.20;10.82;;;15.20;87.90;;;;;;5055157;28;20485;-75
2022/04/19 08:20:47;;;;;;;19.73;11.23;;;15.40;85.90;;;;;;5055009;28;20444;-73
2022/04/19 08:23:13;;;;;;;19.48;10.82;;;15.50;83.10;;;;;;5054435;28;20021;-72
2022/04/19 08:25:40;;;;;;;18.00;10.00;;;15.70;82.00;;;;;;5036842;28;20111;-74
2022/04/19 08:28:06;;;;;;;16.85;10.05;;;15.90;80.50;;;;;;5054359;28;20072;-74
2022/04/19 08:30:33;;;;;;;14.77;9.25;;;16.00;78.80;;;;;;5054493;28;20444;-74
2022/04/19 08:32:59;;;;;;;13.75;8.85;;;16.20;76.20;;;;;;5054337;28;20550;-73
2022/04/19 08:35:25;;;;;;;14.77;8.48;;;16.30;74.80;;;;;;5054181;28;20411;-74
2022/04/19 08:37:50;;;;;;;12.85;8.48;;;16.40;73.60;;;;;;5053601;28;20017;-74
2022/04/19 08:40:17;;;;;;;14.10;7.65;;;16.60;72.90;;;;;;5053403;28;20619;-75
2022/04/19 08:42:43;;;;;;;14.63;7.63;;;16.70;71.00;;;;;;5054050;28;20071;-74
2022/04/19 08:45:11;;;;;;;11.15;6.65;;;16.90;69.50;;;;;;5054241;28;20027;-74
2022/04/19 08:47:39;;;;;;;10.45;6.82;;;17.00;68.00;;;;;;5053712;28;20431;-75
2022/04/19 08:50:09;;;;;;;8.60;6.05;;;17.20;67.00;;;;;;5053591;28;20021;-75
2022/04/19 08:52:35;;;;;;;9.85;5.78;;;17.30;66.20;;;;;;5053524;28;20036;-74
2022/04/19 08:57:45;;;;;;;8.23;5.43;;;17.60;63.60;;;;;;5053812;28;20051;-75
2022/04/19 09:00:12;;;;;;;11.25;6.05;;;17.70;62.10;;;;;;5053072;28;20057;-74
2022/04/19 09:02:38;;;;;;;11.13;5.88;;;17.80;61.50;;;;;;5035748;28;20116;-76
2022/04/19 09:05:21;;;;;;;9.88;5.80;;;17.90;61.00;;;;;;5053218;28;20101;-75
2022/04/19 09:07:48;;;;;;;10.27;6.07;;;18.10;60.00;;;;;;5034962;28;20029;-75
2022/04/19 09:10:24;;;;;;;9.38;5.45;;;18.20;60.20;;;;;;5053326;28;20025;-76
2022/04/19 09:13:17;;;;;;;10.75;6.35;;;18.30;59.60;;;;;;5035206;28;20037;-74
2022/04/19 09:15:44;;;;;;;9.35;5.80;;;18.50;59.70;;;;;;5052362;28;20040;-75
2022/04/19 09:18:29;;;;;;;11.00;6.15;;;18.60;58.80;;;;;;5052865;28;20053;-74
2022/04/19 09:20:57;;;;;;;10.77;6.43;;;18.70;58.60;;;;;;5053602;28;20016;-75
2022/04/19 09:23:29;;;;;;;9.48;5.90;;;18.80;58.10;;;;;;5053918;28;20057;-74
2022/04/19 09:25:57;;;;;;;9.73;5.70;;;18.80;57.50;;;;;;5054136;28;20025;-74
2022/04/19 09:28:24;;;;;;;11.77;6.03;;;18.70;57.10;;;;;;5053473;28;20071;-74
2022/04/19 09:30:52;;;;;;;10.18;6.55;;;18.70;56.80;;;;;;5052932;28;20025;-74
2022/04/19 09:33:21;;;;;;;10.80;6.07;;;18.70;56.50;;;;;;5053206;28;20026;-74
2022/04/19 09:36:02;;;;;;;11.32;5.97;;;18.70;56.50;;;;;;5052890;28;20013;-75
2022/04/19 09:38:42;;;;;;;15.75;6.70;;;18.70;56.70;;;;;;5052569;28;20025;-75
2022/04/19 09:41:10;;;;;;;12.25;6.30;;;18.70;57.10;;;;;;5052700;28;20129;-75
2022/04/19 09:43:36;;;;;;;9.15;5.57;;;18.70;56.90;;;;;;5052298;28;20082;-75
2022/04/19 09:46:04;;;;;;;9.52;5.95;;;18.70;57.20;;;;;;5052360;28;20059;-75
2022/04/19 09:48:31;;;;;;;10.55;6.47;;;18.80;57.50;;;;;;5052691;28;20028;-75
2022/04/19 09:51:02;;;;;;;9.60;6.47;;;18.80;57.10;;;;;;5052121;28;20036;-74
2022/04/19 09:53:30;;;;;;;12.65;6.28;;;18.80;56.90;;;;;;5052085;28;20083;-76
2022/04/19 09:55:57;;;;;;;10.65;6.38;;;18.80;56.50;;;;;;5052320;28;20381;-75
2022/04/19 09:58:25;;;;;;;12.60;6.60;;;18.80;56.20;;;;;;5034395;28;20036;-76
2022/04/19 10:00:51;;;;;;;10.88;5.75;;;18.80;55.60;;;;;;5051966;28;20037;-75
2022/04/19 10:08:50;;;;;;;;;;;18.70;55.60;;;;;;5052432;28;20091;-75
2022/04/19 10:11:16;;;;;;;12.68;6.05;;;18.80;54.90;;;;;;5052119;28;19915;-74
2022/04/19 10:13:42;;;;;;;10.07;5.95;;;18.80;54.70;;;;;;5052029;28;20052;-75
2022/04/19 10:16:12;;;;;;;9.77;5.45;;;18.90;54.30;;;;;;5052099;28;20068;-74
2022/04/19 10:18:39;;;;;;;11.48;6.07;;;19.00;54.20;;;;;;5033373;28;20107;-75
2022/04/19 10:21:08;;;;;;;10.27;6.20;;;19.10;54.20;;;;;;5051733;28;20055;-75
2022/04/19 10:23:39;;;;;;;10.32;6.25;;;19.10;53.70;;;;;;5052129;28;20056;-76
2022/04/19 10:26:24;;;;;;;10.00;6.10;;;19.20;52.80;;;;;;5051859;28;20029;-76
2022/04/19 10:28:55;;;;;;;12.27;6.68;;;19.30;51.30;;;;;;5051510;28;20040;-75
2022/04/19 10:31:38;;;;;;;11.65;6.30;;;19.30;50.50;;;;;;5051616;28;20071;-76
2022/04/19 10:34:05;;;;;;;11.35;6.60;;;19.30;50.60;;;;;;5051654;28;20393;-73
2022/04/19 10:36:34;;;;;;;11.18;6.38;;;19.40;50.30;;;;;;5051344;28;20013;-73
2022/04/19 10:39:12;;;;;;;9.48;5.82;;;19.60;50.00;;;;;;5051208;28;20017;-73
2022/04/19 10:42:03;;;;;;;11.48;6.15;;;19.80;50.20;;;;;;5050932;28;20025;-74
2022/04/19 10:44:43;;;;;;;11.48;6.80;;;20.10;49.90;;;;;;5051165;28;20040;-76
2022/04/19 10:47:13;;;;;;;12.07;7.28;;;20.30;49.50;;;;;;5050923;28;20104;-74
2022/04/19 10:49:57;;;;;;;13.20;7.32;;;20.50;49.30;;;;;;5050845;28;20134;-75
2022/04/19 10:52:39;;;;;;;12.70;6.70;;;20.70;49.00;;;;;;5051229;28;20440;-75
2022/04/19 10:55:06;;;;;;;13.35;7.35;;;20.90;48.60;;;;;;5051402;28;20374;-75
2022/04/19 11:00:34;;;;;;;12.32;7.68;;;21.00;46.90;;;;;;5051130;28;20039;-73
2022/04/19 11:03:07;;;;;;;13.10;6.90;;;21.10;47.00;;;;;;5050607;28;20021;-75
2022/04/19 11:05:43;;;;;;;10.48;6.35;;;21.10;45.10;;;;;;5033149;28;20091;-75
2022/04/19 11:08:25;;;;;;;13.77;8.13;;;21.00;45.30;;;;;;5050825;28;20025;-75
2022/04/19 11:11:02;;;;;;;16.38;8.27;;;21.10;46.40;;;;;;5050874;28;20021;-76
2022/04/19 11:13:29;;;;;;;12.43;7.38;;;21.20;45.80;;;;;;5050835;28;20033;-75
2022/04/19 11:16:13;;;;;;;12.80;7.70;;;21.20;45.20;;;;;;5050942;28;20067;-75
2022/04/19 11:18:39;;;;;;;13.85;7.63;;;21.20;45.10;;;;;;5050594;28;20052;-75
2022/04/19 11:21:11;;;;;;;12.30;7.18;;;21.30;45.70;;;;;;5050835;28;20488;-75
2022/04/19 11:23:48;;;;;;;14.43;8.05;;;21.40;45.50;;;;;;5051132;28;20415;-75
2022/04/19 11:26:26;;;;;;;12.88;7.57;;;21.50;45.30;;;;;;5051062;28;20029;-74
2022/04/19 11:29:10;;;;;;;11.32;7.22;;;21.60;45.30;;;;;;5050667;28;20388;-73
2022/04/19 11:31:36;;;;;;;12.85;7.95;;;21.70;45.00;;;;;;5054492;28;20032;-73
2022/04/19 11:34:20;;;;;;;16.00;8.43;;;21.70;44.80;;;;;;5055236;28;20025;-74
2022/04/19 11:36:45;;;;;;;12.65;7.82;;;21.80;42.90;;;;;;5054766;28;20120;-74
2022/04/19 11:47:58;;;;;;;13.80;8.75;;;21.90;44.50;;;;;;5054973;28;20032;-75
2022/04/19 11:50:25;;;;;;;13.77;8.05;;;21.90;44.30;;;;;;5054866;28;20021;-75
2022/04/19 11:52:51;;;;;;;13.68;8.43;;;22.10;44.20;;;;;;5054343;28;20036;-75
2022/04/19 11:55:17;;;;;;;15.60;8.05;;;22.20;44.10;;;;;;5055049;28;20432;-75
2022/04/19 11:57:42;;;;;;;13.68;7.68;;;22.30;44.00;;;;;;5054589;28;20025;-75
2022/04/19 12:00:08;;;;;;;13.65;8.32;;;22.20;43.60;;;;;;5054356;28;20074;-74
2022/04/19 12:02:36;;;;;;;16.40;8.68;;;22.30;43.60;;;;;;5054124;28;20108;-75
2022/04/19 12:05:03;;;;;;;15.85;8.35;;;22.30;43.80;;;;;;5054368;28;20106;-74
2022/04/19 12:07:28;;;;;;;16.25;9.02;;;22.30;43.80;;;;;;5054470;28;20029;-75
2022/04/19 12:09:58;;;;;;;14.20;8.30;;;22.40;43.10;;;;;;5053935;28;20021;-75
2022/04/19 12:12:23;;;;;;;17.52;8.35;;;22.40;42.90;;;;;;5054501;28;20026;-74
2022/04/19 12:14:54;;;;;;;16.58;8.77;;;22.50;43.00;;;;;;5054303;28;20051;-74
2022/04/19 12:17:22;;;;;;;15.80;7.97;;;22.60;42.60;;;;;;5054415;28;20527;-74
2022/04/19 12:19:48;;;;;;;14.85;8.98;;;22.70;42.90;;;;;;5054020;28;20063;-75
2022/04/19 12:22:18;;;;;;;14.10;7.97;;;22.80;42.60;;;;;;5054086;28;20508;-75
2022/04/19 12:24:46;;;;;;;14.57;8.05;;;22.80;42.10;;;;;;5054560;28;20024;-75
2022/04/19 12:27:12;;;;;;;14.43;7.65;;;22.90;42.30;;;;;;5054345;28;20071;-75
2022/04/19 12:29:55;;;;;;;13.48;8.15;;;22.90;41.70;;;;;;5053792;28;20238;-75
2022/04/19 12:32:20;;;;;;;11.63;7.28;;;22.90;40.50;;;;;;5053843;28;20025;-74
2022/04/19 12:34:46;;;;;;;12.55;7.47;;;22.80;40.90;;;;;;5054089;28;20063;-75
2022/04/19 12:37:21;;;;;;;13.60;7.25;;;22.80;40.90;;;;;;5036590;28;20083;-75
2022/04/19 12:39:58;;;;;;;14.38;6.97;;;22.90;40.30;;;;;;5053661;28;20077;-74
2022/04/19 12:42:24;;;;;;;11.52;7.10;;;22.70;39.80;;;;;;5053044;28;20017;-76
2022/04/19 12:45:05;;;;;;;12.27;7.32;;;22.60;40.10;;;;;;5053940;28;20037;-75
2022/04/19 12:47:31;;;;;;;11.43;7.05;;;22.60;40.00;;;;;;5053915;28;20025;-75
2022/04/19 12:49:57;;;;;;;13.52;6.63;;;22.50;40.50;;;;;;5053234;28;20040;-75
2022/04/19 12:52:31;;;;;;;12.55;7.15;;;22.50;40.90;;;;;;5053128;28;20029;-75
2022/04/19 12:55:00;;;;;;;13.68;6.97;;;22.60;41.00;;;;;;5053316;28;20040;-75
2022/04/19 12:57:25;;;;;;;12.52;6.85;;;22.50;40.90;;;;;;5053131;28;20025;-74
2022/04/19 12:59:52;;;;;;;11.98;6.90;;;22.50;40.70;;;;;;5053482;28;20021;-74
2022/04/19 13:02:19;;;;;;;14.70;7.40;;;22.60;40.50;;;;;;5053010;28;20481;-75
2022/04/19 13:04:48;;;;;;;10.70;6.65;;;22.60;40.80;;;;;;5053528;28;20025;-74
2022/04/19 13:12:44;;;;;;;12.73;6.65;;;22.80;40.50;;;;;;5053491;28;20036;-75
2022/04/19 13:15:10;;;;;;;9.98;6.15;;;22.80;40.00;;;;;;5052968;28;20040;-75
2022/04/19 13:17:41;;;;;;;10.77;6.75;;;22.80;39.60;;;;;;5052815;28;20029;-75
2022/04/19 13:20:08;;;;;;;10.75;6.10;;;22.90;39.80;;;;;;5052826;28;20463;-74